sensor_id;sensor_type;location;lat;lon;timestamp;P1;durP1;ratioP1;P2;durP2;ratioP2
58069;SDS011;43863;52.256;21.048;2022-08-14T00:02:25;19.65;;;12.32;;
58069;SDS011;43863;52.256;21.048;2022-08-14T00:04:57;19.30;;;13.20;;
58069;SDS011;43863;52.256;21.048;2022-08-14T00:07:25;22.15;;;12.60;;
58069;SDS011;43863;52.256;21.048;2022-08-14T00:09:55;20.67;;;13.15;;
58069;SDS011;43863;52.256;21.048;2022-08-14T00:12:51;19.70;;;12.73;;
58069;SDS011;43863;52.256;21.048;2022-08-14T00:15:31;25.08;;;13.30;;
58069;SDS011;43863;52.256;21.048;2022-08-14T00:18:11;19.00;;;12.25;;
58069;SDS011;43863;52.256;21.048;2022-08-14T00:21:07;21.30;;;12.40;;
58069;SDS011;43863;52.256;21.048;2022-08-14T00:23:38;19.67;;;13.27;;
58069;SDS011;43863;52.256;21.048;2022-08-14T00:26:07;19.65;;;13.20;;
58069;SDS011;43863;52.256;21.048;2022-08-14T00:28:52;19.10;;;12.70;;
58069;SDS011;43863;52.256;21.048;2022-08-14T00:31:22;21.08;;;12.50;;
58069;SDS011;43863;52.256;21.048;2022-08-14T00:34:10;18.95;;;12.20;;
58069;SDS011;43863;52.256;21.048;2022-08-14T00:39:51;20.42;;;12.50;;
58069;SDS011;43863;52.256;21.048;2022-08-14T00:42:19;19.13;;;13.50;;
58069;SDS011;43863;52.256;21.048;2022-08-14T00:45:09;18.08;;;13.10;;
58069;SDS011;43863;52.256;21.048;2022-08-14T00:47:41;16.15;;;12.02;;
58069;SDS011;43863;52.256;21.048;2022-08-14T00:50:14;18.77;;;11.55;;
58069;SDS011;43863;52.256;21.048;2022-08-14T00:52:49;19.00;;;12.65;;
58069;SDS011;43863;52.256;21.048;2022-08-14T00:55:19;18.17;;;12.13;;
58069;SDS011;43863;52.256;21.048;2022-08-14T00:57:49;17.13;;;12.15;;
58069;SDS011;43863;52.256;21.048;2022-08-14T01:00:47;18.33;;;12.02;;
58069;SDS011;43863;52.256;21.048;2022-08-14T01:03:22;19.35;;;12.48;;
58069;SDS011;43863;52.256;21.048;2022-08-14T01:05:52;24.60;;;15.60;;
58069;SDS011;43863;52.256;21.048;2022-08-14T01:08:23;18.73;;;13.15;;
58069;SDS011;43863;52.256;21.048;2022-08-14T01:11:16;19.40;;;12.75;;
58069;SDS011;43863;52.256;21.048;2022-08-14T01:13:46;17.50;;;12.25;;
58069;SDS011;43863;52.256;21.048;2022-08-14T01:16:27;20.42;;;14.23;;
58069;SDS011;43863;52.256;21.048;2022-08-14T01:18:57;17.17;;;11.38;;
58069;SDS011;43863;52.256;21.048;2022-08-14T01:21:50;15.35;;;10.77;;
58069;SDS011;43863;52.256;21.048;2022-08-14T01:24:20;18.23;;;11.73;;
58069;SDS011;43863;52.256;21.048;2022-08-14T01:26:58;18.60;;;12.43;;
58069;SDS011;43863;52.256;21.048;2022-08-14T01:29:30;27.02;;;12.45;;
58069;SDS011;43863;52.256;21.048;2022-08-14T01:32:25;16.83;;;12.45;;
58069;SDS011;43863;52.256;21.048;2022-08-14T01:34:58;16.73;;;11.50;;
58069;SDS011;43863;52.256;21.048;2022-08-14T01:37:46;18.58;;;10.93;;
58069;SDS011;43863;52.256;21.048;2022-08-14T01:40:24;17.90;;;11.50;;
58069;SDS011;43863;52.256;21.048;2022-08-14T01:43:10;16.88;;;11.70;;
58069;SDS011;43863;52.256;21.048;2022-08-14T01:45:48;17.25;;;11.60;;
58069;SDS011;43863;52.256;21.048;2022-08-14T01:54:24;18.25;;;12.32;;
58069;SDS011;43863;52.256;21.048;2022-08-14T01:57:04;18.83;;;12.85;;
58069;SDS011;43863;52.256;21.048;2022-08-14T01:59:37;21.00;;;12.77;;
58069;SDS011;43863;52.256;21.048;2022-08-14T02:02:10;16.40;;;11.40;;
58069;SDS011;43863;52.256;21.048;2022-08-14T02:07:40;16.45;;;11.95;;
58069;SDS011;43863;52.256;21.048;2022-08-14T02:10:33;17.15;;;11.57;;
58069;SDS011;43863;52.256;21.048;2022-08-14T02:13:14;19.25;;;11.43;;
58069;SDS011;43863;52.256;21.048;2022-08-14T02:15:46;18.98;;;11.57;;
58069;SDS011;43863;52.256;21.048;2022-08-14T02:18:15;17.60;;;11.65;;
58069;SDS011;43863;52.256;21.048;2022-08-14T02:20:44;20.00;;;13.00;;
58069;SDS011;43863;52.256;21.048;2022-08-14T02:23:14;20.73;;;11.70;;
58069;SDS011;43863;52.256;21.048;2022-08-14T02:25:57;14.55;;;11.25;;
58069;SDS011;43863;52.256;21.048;2022-08-14T02:28:55;17.38;;;11.10;;
58069;SDS011;43863;52.256;21.048;2022-08-14T02:31:27;18.85;;;11.93;;
58069;SDS011;43863;52.256;21.048;2022-08-14T02:34:14;14.82;;;11.43;;
58069;SDS011;43863;52.256;21.048;2022-08-14T02:39:47;20.05;;;11.07;;
58069;SDS011;43863;52.256;21.048;2022-08-14T02:42:18;18.10;;;10.90;;
58069;SDS011;43863;52.256;21.048;2022-08-14T02:48:14;17.08;;;12.27;;
58069;SDS011;43863;52.256;21.048;2022-08-14T02:51:06;18.35;;;11.05;;
58069;SDS011;43863;52.256;21.048;2022-08-14T02:53:39;15.43;;;10.93;;
58069;SDS011;43863;52.256;21.048;2022-08-14T02:56:13;16.08;;;10.65;;
58069;SDS011;43863;52.256;21.048;2022-08-14T02:58:57;16.15;;;10.52;;
58069;SDS011;43863;52.256;21.048;2022-08-14T03:01:32;14.93;;;10.63;;
58069;SDS011;43863;52.256;21.048;2022-08-14T03:04:19;13.57;;;10.23;;
58069;SDS011;43863;52.256;21.048;2022-08-14T03:06:49;17.40;;;10.50;;
58069;SDS011;43863;52.256;21.048;2022-08-14T03:09:37;14.52;;;10.77;;
58069;SDS011;43863;52.256;21.048;2022-08-14T03:12:26;16.23;;;10.60;;
58069;SDS011;43863;52.256;21.048;2022-08-14T03:14:59;16.95;;;10.90;;
58069;SDS011;43863;52.256;21.048;2022-08-14T03:17:35;16.17;;;11.43;;
58069;SDS011;43863;52.256;21.048;2022-08-14T03:20:23;17.95;;;10.90;;
58069;SDS011;43863;52.256;21.048;2022-08-14T03:22:52;14.80;;;11.07;;
58069;SDS011;43863;52.256;21.048;2022-08-14T03:25:20;15.57;;;10.48;;
58069;SDS011;43863;52.256;21.048;2022-08-14T03:27:48;14.80;;;10.30;;
58069;SDS011;43863;52.256;21.048;2022-08-14T03:30:30;17.65;;;10.50;;
58069;SDS011;43863;52.256;21.048;2022-08-14T03:33:08;16.33;;;10.52;;
58069;SDS011;43863;52.256;21.048;2022-08-14T03:35:38;17.65;;;11.80;;
58069;SDS011;43863;52.256;21.048;2022-08-14T03:38:28;16.63;;;10.73;;
58069;SDS011;43863;52.256;21.048;2022-08-14T03:44:10;21.50;;;11.18;;
58069;SDS011;43863;52.256;21.048;2022-08-14T03:46:58;18.75;;;10.50;;
58069;SDS011;43863;52.256;21.048;2022-08-14T03:49:29;15.15;;;10.85;;
58069;SDS011;43863;52.256;21.048;2022-08-14T03:52:00;17.42;;;10.63;;
58069;SDS011;43863;52.256;21.048;2022-08-14T03:54:53;18.42;;;10.82;;
58069;SDS011;43863;52.256;21.048;2022-08-14T03:57:20;14.02;;;10.23;;
58069;SDS011;43863;52.256;21.048;2022-08-14T03:59:50;15.50;;;10.15;;
58069;SDS011;43863;52.256;21.048;2022-08-14T04:05:13;13.40;;;10.18;;
58069;SDS011;43863;52.256;21.048;2022-08-14T04:07:42;19.08;;;12.00;;
58069;SDS011;43863;52.256;21.048;2022-08-14T04:10:31;16.05;;;10.75;;
58069;SDS011;43863;52.256;21.048;2022-08-14T04:13:00;14.20;;;11.00;;
58069;SDS011;43863;52.256;21.048;2022-08-14T04:15:31;15.30;;;11.10;;
58069;SDS011;43863;52.256;21.048;2022-08-14T04:18:20;15.93;;;11.32;;
58069;SDS011;43863;52.256;21.048;2022-08-14T04:20:48;13.73;;;10.68;;
58069;SDS011;43863;52.256;21.048;2022-08-14T04:23:21;15.43;;;10.73;;
58069;SDS011;43863;52.256;21.048;2022-08-14T04:26:12;14.40;;;10.57;;
58069;SDS011;43863;52.256;21.048;2022-08-14T04:28:54;15.50;;;10.38;;
58069;SDS011;43863;52.256;21.048;2022-08-14T04:31:40;13.73;;;10.10;;
58069;SDS011;43863;52.256;21.048;2022-08-14T04:34:31;13.82;;;9.98;;
58069;SDS011;43863;52.256;21.048;2022-08-14T04:37:02;15.00;;;10.68;;
58069;SDS011;43863;52.256;21.048;2022-08-14T04:39:52;15.30;;;10.77;;
58069;SDS011;43863;52.256;21.048;2022-08-14T04:42:41;19.83;;;11.27;;
58069;SDS011;43863;52.256;21.048;2022-08-14T04:45:33;15.85;;;10.88;;
58069;SDS011;43863;52.256;21.048;2022-08-14T04:48:11;21.10;;;13.40;;
58069;SDS011;43863;52.256;21.048;2022-08-14T04:51:02;18.48;;;10.98;;
58069;SDS011;43863;52.256;21.048;2022-08-14T04:53:35;17.65;;;11.32;;
58069;SDS011;43863;52.256;21.048;2022-08-14T04:56:10;24.50;;;12.18;;
58069;SDS011;43863;52.256;21.048;2022-08-14T04:59:04;17.20;;;11.43;;
58069;SDS011;43863;52.256;21.048;2022-08-14T05:01:37;18.73;;;12.25;;
58069;SDS011;43863;52.256;21.048;2022-08-14T05:04:16;17.05;;;11.93;;
58069;SDS011;43863;52.256;21.048;2022-08-14T05:06:50;18.80;;;13.20;;
58069;SDS011;43863;52.256;21.048;2022-08-14T05:09:21;17.75;;;11.02;;
58069;SDS011;43863;52.256;21.048;2022-08-14T05:11:55;20.67;;;12.95;;
58069;SDS011;43863;52.256;21.048;2022-08-14T05:14:47;18.65;;;12.27;;
58069;SDS011;43863;52.256;21.048;2022-08-14T05:17:22;19.10;;;11.75;;
58069;SDS011;43863;52.256;21.048;2022-08-14T05:23:28;19.23;;;11.90;;
58069;SDS011;43863;52.256;21.048;2022-08-14T05:25:59;16.92;;;12.32;;
58069;SDS011;43863;52.256;21.048;2022-08-14T05:28:41;21.55;;;11.88;;
58069;SDS011;43863;52.256;21.048;2022-08-14T05:31:15;17.98;;;11.90;;
58069;SDS011;43863;52.256;21.048;2022-08-14T05:33:47;19.35;;;11.90;;
58069;SDS011;43863;52.256;21.048;2022-08-14T05:39:29;18.80;;;11.68;;
58069;SDS011;43863;52.256;21.048;2022-08-14T05:41:58;19.70;;;12.23;;
58069;SDS011;43863;52.256;21.048;2022-08-14T05:44:27;21.08;;;12.82;;
58069;SDS011;43863;52.256;21.048;2022-08-14T05:46:57;19.93;;;12.40;;
58069;SDS011;43863;52.256;21.048;2022-08-14T05:49:27;18.87;;;13.27;;
58069;SDS011;43863;52.256;21.048;2022-08-14T05:52:00;20.38;;;14.40;;
58069;SDS011;43863;52.256;21.048;2022-08-14T05:54:29;23.45;;;16.70;;
58069;SDS011;43863;52.256;21.048;2022-08-14T05:57:02;26.35;;;19.15;;
58069;SDS011;43863;52.256;21.048;2022-08-14T05:59:31;20.77;;;13.85;;
58069;SDS011;43863;52.256;21.048;2022-08-14T06:02:07;25.08;;;16.73;;
58069;SDS011;43863;52.256;21.048;2022-08-14T06:04:37;25.20;;;14.93;;
58069;SDS011;43863;52.256;21.048;2022-08-14T06:07:07;19.55;;;13.65;;
58069;SDS011;43863;52.256;21.048;2022-08-14T06:09:35;21.77;;;14.63;;
58069;SDS011;43863;52.256;21.048;2022-08-14T06:12:07;28.02;;;20.52;;
58069;SDS011;43863;52.256;21.048;2022-08-14T06:14:36;24.23;;;17.05;;
58069;SDS011;43863;52.256;21.048;2022-08-14T06:17:05;21.38;;;15.38;;
58069;SDS011;43863;52.256;21.048;2022-08-14T06:19:35;26.17;;;18.67;;
58069;SDS011;43863;52.256;21.048;2022-08-14T06:22:03;22.75;;;15.25;;
58069;SDS011;43863;52.256;21.048;2022-08-14T06:24:35;21.73;;;14.68;;
58069;SDS011;43863;52.256;21.048;2022-08-14T06:30:42;21.25;;;13.90;;
58069;SDS011;43863;52.256;21.048;2022-08-14T06:33:15;22.60;;;14.85;;
58069;SDS011;43863;52.256;21.048;2022-08-14T06:35:46;25.38;;;15.88;;
58069;SDS011;43863;52.256;21.048;2022-08-14T06:38:19;23.25;;;15.70;;
58069;SDS011;43863;52.256;21.048;2022-08-14T06:40:50;25.83;;;16.88;;
58069;SDS011;43863;52.256;21.048;2022-08-14T06:43:20;21.93;;;15.23;;
58069;SDS011;43863;52.256;21.048;2022-08-14T06:45:58;24.42;;;16.42;;
58069;SDS011;43863;52.256;21.048;2022-08-14T06:48:29;22.85;;;15.15;;
58069;SDS011;43863;52.256;21.048;2022-08-14T06:51:01;26.45;;;15.27;;
58069;SDS011;43863;52.256;21.048;2022-08-14T07:03:20;25.08;;;15.80;;
58069;SDS011;43863;52.256;21.048;2022-08-14T07:06:10;24.15;;;15.82;;
58069;SDS011;43863;52.256;21.048;2022-08-14T07:08:59;23.83;;;15.32;;
58069;SDS011;43863;52.256;21.048;2022-08-14T07:11:28;22.13;;;14.73;;
58069;SDS011;43863;52.256;21.048;2022-08-14T07:13:56;22.88;;;14.55;;
58069;SDS011;43863;52.256;21.048;2022-08-14T07:16:24;23.27;;;15.05;;
58069;SDS011;43863;52.256;21.048;2022-08-14T07:18:53;24.83;;;16.02;;
58069;SDS011;43863;52.256;21.048;2022-08-14T07:21:21;28.98;;;19.38;;
58069;SDS011;43863;52.256;21.048;2022-08-14T07:23:50;27.10;;;17.55;;
58069;SDS011;43863;52.256;21.048;2022-08-14T07:26:18;28.02;;;17.95;;
58069;SDS011;43863;52.256;21.048;2022-08-14T07:28:46;23.58;;;15.75;;
58069;SDS011;43863;52.256;21.048;2022-08-14T07:31:14;23.55;;;15.30;;
58069;SDS011;43863;52.256;21.048;2022-08-14T07:33:44;22.77;;;14.38;;
58069;SDS011;43863;52.256;21.048;2022-08-14T07:36:18;24.27;;;14.40;;
58069;SDS011;43863;52.256;21.048;2022-08-14T07:39:05;21.60;;;14.75;;
58069;SDS011;43863;52.256;21.048;2022-08-14T07:41:41;54.22;;;26.92;;
58069;SDS011;43863;52.256;21.048;2022-08-14T07:44:10;25.27;;;15.30;;
58069;SDS011;43863;52.256;21.048;2022-08-14T07:47:00;49.85;;;26.60;;
58069;SDS011;43863;52.256;21.048;2022-08-14T07:49:30;52.77;;;27.83;;
58069;SDS011;43863;52.256;21.048;2022-08-14T07:54:29;39.13;;;19.25;;
58069;SDS011;43863;52.256;21.048;2022-08-14T07:56:59;33.50;;;19.38;;
58069;SDS011;43863;52.256;21.048;2022-08-14T07:59:38;21.55;;;14.38;;
58069;SDS011;43863;52.256;21.048;2022-08-14T08:02:14;32.15;;;17.75;;
58069;SDS011;43863;52.256;21.048;2022-08-14T08:07:53;26.90;;;14.95;;
58069;SDS011;43863;52.256;21.048;2022-08-14T08:10:23;23.83;;;14.43;;
58069;SDS011;43863;52.256;21.048;2022-08-14T08:13:19;25.67;;;15.05;;
58069;SDS011;43863;52.256;21.048;2022-08-14T08:19:05;24.23;;;15.00;;
58069;SDS011;43863;52.256;21.048;2022-08-14T08:21:40;24.45;;;14.95;;
58069;SDS011;43863;52.256;21.048;2022-08-14T08:24:11;22.55;;;15.10;;
58069;SDS011;43863;52.256;21.048;2022-08-14T08:26:47;22.27;;;14.70;;
58069;SDS011;43863;52.256;21.048;2022-08-14T08:29:22;20.35;;;14.27;;
58069;SDS011;43863;52.256;21.048;2022-08-14T08:31:55;24.65;;;14.38;;
58069;SDS011;43863;52.256;21.048;2022-08-14T08:37:33;23.63;;;15.02;;
58069;SDS011;43863;52.256;21.048;2022-08-14T08:40:10;25.88;;;14.63;;
58069;SDS011;43863;52.256;21.048;2022-08-14T08:42:47;21.40;;;14.30;;
58069;SDS011;43863;52.256;21.048;2022-08-14T08:45:20;21.65;;;14.05;;
58069;SDS011;43863;52.256;21.048;2022-08-14T08:47:49;23.52;;;14.55;;
58069;SDS011;43863;52.256;21.048;2022-08-14T08:52:58;21.77;;;14.70;;
58069;SDS011;43863;52.256;21.048;2022-08-14T08:55:33;28.08;;;16.73;;
58069;SDS011;43863;52.256;21.048;2022-08-14T08:58:05;33.15;;;18.58;;
58069;SDS011;43863;52.256;21.048;2022-08-14T09:00:47;25.23;;;15.10;;
58069;SDS011;43863;52.256;21.048;2022-08-14T09:03:21;20.00;;;14.27;;
58069;SDS011;43863;52.256;21.048;2022-08-14T09:05:54;32.13;;;16.50;;
58069;SDS011;43863;52.256;21.048;2022-08-14T09:08:26;25.00;;;16.45;;
58069;SDS011;43863;52.256;21.048;2022-08-14T09:11:00;23.33;;;15.02;;
58069;SDS011;43863;52.256;21.048;2022-08-14T09:13:48;23.60;;;14.55;;
58069;SDS011;43863;52.256;21.048;2022-08-14T09:16:23;22.88;;;14.65;;
58069;SDS011;43863;52.256;21.048;2022-08-14T09:18:52;21.42;;;13.40;;
58069;SDS011;43863;52.256;21.048;2022-08-14T09:21:22;23.42;;;13.18;;
58069;SDS011;43863;52.256;21.048;2022-08-14T09:23:58;50.05;;;20.65;;
58069;SDS011;43863;52.256;21.048;2022-08-14T09:26:48;24.48;;;14.90;;
58069;SDS011;43863;52.256;21.048;2022-08-14T09:29:17;19.05;;;13.70;;
58069;SDS011;43863;52.256;21.048;2022-08-14T09:31:53;24.52;;;14.25;;
58069;SDS011;43863;52.256;21.048;2022-08-14T09:46:20;25.58;;;15.40;;
58069;SDS011;43863;52.256;21.048;2022-08-14T09:49:02;21.30;;;13.35;;
58069;SDS011;43863;52.256;21.048;2022-08-14T09:51:31;21.80;;;13.98;;
58069;SDS011;43863;52.256;21.048;2022-08-14T09:54:20;22.67;;;14.23;;
58069;SDS011;43863;52.256;21.048;2022-08-14T09:56:50;20.80;;;13.77;;
58069;SDS011;43863;52.256;21.048;2022-08-14T09:59:26;21.92;;;13.75;;
58069;SDS011;43863;52.256;21.048;2022-08-14T10:01:59;22.55;;;15.07;;
58069;SDS011;43863;52.256;21.048;2022-08-14T10:04:28;20.67;;;13.95;;
58069;SDS011;43863;52.256;21.048;2022-08-14T10:07:05;20.30;;;13.70;;
58069;SDS011;43863;52.256;21.048;2022-08-14T10:09:47;21.52;;;14.25;;
58069;SDS011;43863;52.256;21.048;2022-08-14T10:12:40;22.60;;;14.13;;
58069;SDS011;43863;52.256;21.048;2022-08-14T10:15:29;22.50;;;13.82;;
58069;SDS011;43863;52.256;21.048;2022-08-14T10:18:17;21.08;;;14.43;;
58069;SDS011;43863;52.256;21.048;2022-08-14T10:20:53;18.40;;;13.77;;
58069;SDS011;43863;52.256;21.048;2022-08-14T10:23:28;21.27;;;13.70;;
58069;SDS011;43863;52.256;21.048;2022-08-14T10:26:09;20.42;;;14.00;;
58069;SDS011;43863;52.256;21.048;2022-08-14T10:29:02;22.02;;;13.43;;
58069;SDS011;43863;52.256;21.048;2022-08-14T10:31:55;23.05;;;15.77;;
58069;SDS011;43863;52.256;21.048;2022-08-14T10:34:35;21.83;;;14.20;;
58069;SDS011;43863;52.256;21.048;2022-08-14T10:39:42;19.77;;;13.77;;
58069;SDS011;43863;52.256;21.048;2022-08-14T10:42:37;20.30;;;13.55;;
58069;SDS011;43863;52.256;21.048;2022-08-14T10:45:20;21.38;;;13.93;;
58069;SDS011;43863;52.256;21.048;2022-08-14T10:47:51;24.08;;;14.48;;
58069;SDS011;43863;52.256;21.048;2022-08-14T10:50:39;22.88;;;14.35;;
58069;SDS011;43863;52.256;21.048;2022-08-14T10:53:12;20.83;;;13.75;;
58069;SDS011;43863;52.256;21.048;2022-08-14T10:55:41;24.65;;;15.15;;
58069;SDS011;43863;52.256;21.048;2022-08-14T11:00:41;21.30;;;14.30;;
58069;SDS011;43863;52.256;21.048;2022-08-14T11:03:23;21.75;;;14.07;;
58069;SDS011;43863;52.256;21.048;2022-08-14T11:06:14;20.15;;;14.45;;
58069;SDS011;43863;52.256;21.048;2022-08-14T11:08:51;21.08;;;15.05;;
58069;SDS011;43863;52.256;21.048;2022-08-14T11:11:20;22.90;;;14.73;;
58069;SDS011;43863;52.256;21.048;2022-08-14T11:14:02;25.55;;;15.80;;
58069;SDS011;43863;52.256;21.048;2022-08-14T11:16:38;23.05;;;14.52;;
58069;SDS011;43863;52.256;21.048;2022-08-14T11:19:21;26.48;;;15.77;;
58069;SDS011;43863;52.256;21.048;2022-08-14T11:21:51;20.80;;;14.93;;
58069;SDS011;43863;52.256;21.048;2022-08-14T11:24:23;24.10;;;16.85;;
58069;SDS011;43863;52.256;21.048;2022-08-14T11:27:15;22.10;;;15.18;;
58069;SDS011;43863;52.256;21.048;2022-08-14T11:29:48;23.55;;;15.48;;
58069;SDS011;43863;52.256;21.048;2022-08-14T11:32:27;36.58;;;16.90;;
58069;SDS011;43863;52.256;21.048;2022-08-14T11:34:59;21.50;;;14.85;;
58069;SDS011;43863;52.256;21.048;2022-08-14T11:37:32;26.17;;;14.55;;
58069;SDS011;43863;52.256;21.048;2022-08-14T11:40:14;21.88;;;14.15;;
58069;SDS011;43863;52.256;21.048;2022-08-14T11:45:48;24.20;;;16.52;;
58069;SDS011;43863;52.256;21.048;2022-08-14T11:48:19;25.00;;;15.80;;
58069;SDS011;43863;52.256;21.048;2022-08-14T11:51:13;23.83;;;16.02;;
58069;SDS011;43863;52.256;21.048;2022-08-14T11:53:51;24.48;;;15.55;;
58069;SDS011;43863;52.256;21.048;2022-08-14T11:56:34;26.33;;;16.98;;
58069;SDS011;43863;52.256;21.048;2022-08-14T11:59:05;23.02;;;16.00;;
58069;SDS011;43863;52.256;21.048;2022-08-14T12:01:40;26.05;;;16.45;;
58069;SDS011;43863;52.256;21.048;2022-08-14T12:04:12;24.73;;;15.88;;
58069;SDS011;43863;52.256;21.048;2022-08-14T12:06:59;23.40;;;15.73;;
58069;SDS011;43863;52.256;21.048;2022-08-14T12:11:56;22.88;;;15.43;;
58069;SDS011;43863;52.256;21.048;2022-08-14T12:14:24;22.33;;;15.82;;
58069;SDS011;43863;52.256;21.048;2022-08-14T12:17:07;25.05;;;16.05;;
58069;SDS011;43863;52.256;21.048;2022-08-14T12:22:18;24.75;;;16.98;;
58069;SDS011;43863;52.256;21.048;2022-08-14T12:25:27;25.80;;;17.15;;
58069;SDS011;43863;52.256;21.048;2022-08-14T12:27:56;25.67;;;15.95;;
58069;SDS011;43863;52.256;21.048;2022-08-14T12:30:38;20.45;;;14.00;;
58069;SDS011;43863;52.256;21.048;2022-08-14T12:36:06;20.80;;;13.95;;
58069;SDS011;43863;52.256;21.048;2022-08-14T12:38:40;22.95;;;14.60;;
58069;SDS011;43863;52.256;21.048;2022-08-14T12:41:12;22.20;;;14.48;;
58069;SDS011;43863;52.256;21.048;2022-08-14T12:46:46;20.98;;;14.32;;
58069;SDS011;43863;52.256;21.048;2022-08-14T12:49:15;21.17;;;14.07;;
58069;SDS011;43863;52.256;21.048;2022-08-14T12:51:58;19.27;;;14.23;;
58069;SDS011;43863;52.256;21.048;2022-08-14T12:54:27;21.23;;;14.70;;
58069;SDS011;43863;52.256;21.048;2022-08-14T12:57:06;21.63;;;14.45;;
58069;SDS011;43863;52.256;21.048;2022-08-14T12:59:45;21.88;;;14.35;;
58069;SDS011;43863;52.256;21.048;2022-08-14T13:02:22;22.85;;;14.65;;
58069;SDS011;43863;52.256;21.048;2022-08-14T13:04:53;19.77;;;13.98;;
58069;SDS011;43863;52.256;21.048;2022-08-14T13:07:25;30.25;;;15.85;;
58069;SDS011;43863;52.256;21.048;2022-08-14T13:09:59;21.15;;;13.90;;
58069;SDS011;43863;52.256;21.048;2022-08-14T13:13:03;21.45;;;14.32;;
58069;SDS011;43863;52.256;21.048;2022-08-14T13:16:19;22.83;;;14.73;;
58069;SDS011;43863;52.256;21.048;2022-08-14T13:19:11;26.15;;;16.90;;
58069;SDS011;43863;52.256;21.048;2022-08-14T13:21:43;22.92;;;15.30;;
58069;SDS011;43863;52.256;21.048;2022-08-14T13:24:34;21.17;;;13.93;;
58069;SDS011;43863;52.256;21.048;2022-08-14T13:27:07;21.02;;;13.05;;
58069;SDS011;43863;52.256;21.048;2022-08-14T13:29:38;20.73;;;13.05;;
58069;SDS011;43863;52.256;21.048;2022-08-14T13:32:13;20.20;;;12.77;;
58069;SDS011;43863;52.256;21.048;2022-08-14T13:34:47;20.13;;;13.20;;
58069;SDS011;43863;52.256;21.048;2022-08-14T13:37:19;25.60;;;14.75;;
58069;SDS011;43863;52.256;21.048;2022-08-14T13:39:50;22.10;;;14.23;;
58069;SDS011;43863;52.256;21.048;2022-08-14T13:42:24;22.35;;;13.63;;
58069;SDS011;43863;52.256;21.048;2022-08-14T13:44:58;18.77;;;13.45;;
58069;SDS011;43863;52.256;21.048;2022-08-14T13:47:28;20.55;;;13.27;;
58069;SDS011;43863;52.256;21.048;2022-08-14T13:52:52;21.10;;;14.18;;
58069;SDS011;43863;52.256;21.048;2022-08-14T13:55:25;22.15;;;13.32;;
58069;SDS011;43863;52.256;21.048;2022-08-14T14:00:32;19.95;;;13.80;;
58069;SDS011;43863;52.256;21.048;2022-08-14T14:03:21;19.50;;;11.88;;
58069;SDS011;43863;52.256;21.048;2022-08-14T14:05:51;21.67;;;12.82;;
58069;SDS011;43863;52.256;21.048;2022-08-14T14:08:22;20.80;;;11.65;;
58069;SDS011;43863;52.256;21.048;2022-08-14T14:11:11;18.42;;;12.32;;
58069;SDS011;43863;52.256;21.048;2022-08-14T14:13:42;19.20;;;12.65;;
58069;SDS011;43863;52.256;21.048;2022-08-14T14:18:57;18.08;;;12.52;;
58069;SDS011;43863;52.256;21.048;2022-08-14T14:21:36;20.88;;;12.98;;
58069;SDS011;43863;52.256;21.048;2022-08-14T14:24:07;22.25;;;12.70;;
58069;SDS011;43863;52.256;21.048;2022-08-14T14:26:44;18.80;;;12.07;;
58069;SDS011;43863;52.256;21.048;2022-08-14T14:29:19;20.15;;;12.52;;
58069;SDS011;43863;52.256;21.048;2022-08-14T14:31:52;21.73;;;13.77;;
58069;SDS011;43863;52.256;21.048;2022-08-14T14:34:26;19.73;;;13.07;;
58069;SDS011;43863;52.256;21.048;2022-08-14T14:37:02;18.42;;;13.38;;
58069;SDS011;43863;52.256;21.048;2022-08-14T14:39:32;22.40;;;13.40;;
58069;SDS011;43863;52.256;21.048;2022-08-14T14:42:23;24.17;;;14.30;;
58069;SDS011;43863;52.256;21.048;2022-08-14T14:45:03;27.23;;;14.13;;
58069;SDS011;43863;52.256;21.048;2022-08-14T14:47:43;22.88;;;13.73;;
58069;SDS011;43863;52.256;21.048;2022-08-14T14:50:15;23.52;;;13.80;;
58069;SDS011;43863;52.256;21.048;2022-08-14T14:52:43;23.95;;;13.30;;
58069;SDS011;43863;52.256;21.048;2022-08-14T14:55:11;22.05;;;13.80;;
58069;SDS011;43863;52.256;21.048;2022-08-14T14:57:46;21.70;;;14.68;;
58069;SDS011;43863;52.256;21.048;2022-08-14T15:00:21;20.40;;;13.43;;
58069;SDS011;43863;52.256;21.048;2022-08-14T15:02:50;28.85;;;16.52;;
58069;SDS011;43863;52.256;21.048;2022-08-14T15:05:25;24.10;;;15.02;;
58069;SDS011;43863;52.256;21.048;2022-08-14T15:07:54;23.42;;;14.63;;
58069;SDS011;43863;52.256;21.048;2022-08-14T15:10:24;24.52;;;13.20;;
58069;SDS011;43863;52.256;21.048;2022-08-14T15:13:02;25.05;;;14.88;;
58069;SDS011;43863;52.256;21.048;2022-08-14T15:15:33;23.17;;;14.45;;
58069;SDS011;43863;52.256;21.048;2022-08-14T15:18:05;25.52;;;15.75;;
58069;SDS011;43863;52.256;21.048;2022-08-14T15:20:54;27.80;;;15.70;;
58069;SDS011;43863;52.256;21.048;2022-08-14T15:23:26;25.40;;;17.95;;
58069;SDS011;43863;52.256;21.048;2022-08-14T15:26:11;21.58;;;13.65;;
58069;SDS011;43863;52.256;21.048;2022-08-14T15:29:02;25.27;;;16.13;;
58069;SDS011;43863;52.256;21.048;2022-08-14T15:31:33;22.88;;;15.10;;
58069;SDS011;43863;52.256;21.048;2022-08-14T15:36:57;24.08;;;15.60;;
58069;SDS011;43863;52.256;21.048;2022-08-14T15:39:26;24.52;;;14.85;;
58069;SDS011;43863;52.256;21.048;2022-08-14T15:41:59;25.23;;;16.60;;
58069;SDS011;43863;52.256;21.048;2022-08-14T15:44:41;26.15;;;16.27;;
58069;SDS011;43863;52.256;21.048;2022-08-14T15:47:25;24.38;;;15.45;;
58069;SDS011;43863;52.256;21.048;2022-08-14T15:49:59;23.88;;;15.20;;
58069;SDS011;43863;52.256;21.048;2022-08-14T15:52:29;23.73;;;15.07;;
58069;SDS011;43863;52.256;21.048;2022-08-14T15:55:12;26.02;;;15.68;;
58069;SDS011;43863;52.256;21.048;2022-08-14T15:57:42;27.23;;;16.52;;
58069;SDS011;43863;52.256;21.048;2022-08-14T16:00:32;26.70;;;16.65;;
58069;SDS011;43863;52.256;21.048;2022-08-14T16:03:20;25.90;;;16.55;;
58069;SDS011;43863;52.256;21.048;2022-08-14T16:05:51;24.48;;;16.92;;
58069;SDS011;43863;52.256;21.048;2022-08-14T16:08:19;28.58;;;15.85;;
58069;SDS011;43863;52.256;21.048;2022-08-14T16:11:01;27.35;;;16.33;;
58069;SDS011;43863;52.256;21.048;2022-08-14T16:13:33;23.98;;;16.25;;
58069;SDS011;43863;52.256;21.048;2022-08-14T16:16:15;23.58;;;15.23;;
58069;SDS011;43863;52.256;21.048;2022-08-14T16:19:03;27.23;;;15.13;;
58069;SDS011;43863;52.256;21.048;2022-08-14T16:21:37;22.40;;;15.30;;
58069;SDS011;43863;52.256;21.048;2022-08-14T16:24:28;24.80;;;16.13;;
58069;SDS011;43863;52.256;21.048;2022-08-14T16:27:00;25.00;;;15.57;;
58069;SDS011;43863;52.256;21.048;2022-08-14T16:29:31;31.60;;;15.68;;
58069;SDS011;43863;52.256;21.048;2022-08-14T16:32:01;24.73;;;15.70;;
58069;SDS011;43863;52.256;21.048;2022-08-14T16:34:50;26.35;;;16.63;;
58069;SDS011;43863;52.256;21.048;2022-08-14T16:37:22;24.60;;;16.73;;
58069;SDS011;43863;52.256;21.048;2022-08-14T16:39:57;24.85;;;15.77;;
58069;SDS011;43863;52.256;21.048;2022-08-14T16:42:28;34.08;;;22.20;;
58069;SDS011;43863;52.256;21.048;2022-08-14T16:45:23;23.63;;;16.35;;